createdAt,value
2023-02-03T04:51:44.797Z,6.95
2023-02-03T04:54:13.261Z,6.53
2023-02-03T04:56:41.653Z,6.50
2023-02-03T04:59:09.026Z,6.13
2023-02-03T05:01:36.365Z,6.63
2023-02-03T05:04:03.729Z,6.07
2023-02-03T05:06:32.805Z,6.20
2023-02-03T05:09:00.716Z,7.47
2023-02-03T05:11:29.595Z,8.15
2023-02-03T05:14:21.726Z,7.20
2023-02-03T05:16:49.174Z,6.15
2023-02-03T05:19:16.836Z,5.70
2023-02-03T05:21:44.497Z,6.47
2023-02-03T05:24:12.003Z,5.97
2023-02-03T05:26:39.343Z,5.93
2023-02-03T05:29:07.136Z,5.45
2023-02-03T05:31:34.735Z,5.95
2023-02-03T05:34:03.282Z,5.55
2023-02-03T05:36:30.556Z,5.70
2023-02-03T05:38:57.794Z,5.03
2023-02-03T05:41:44.104Z,5.00
2023-02-03T05:44:11.826Z,5.53
2023-02-03T05:46:39.338Z,5.97
2023-02-03T05:49:06.661Z,5.95
2023-02-03T05:51:34.017Z,4.90
2023-02-03T05:54:01.272Z,5.97
2023-02-03T05:56:29.055Z,5.68
2023-02-03T05:58:56.441Z,5.63
2023-02-03T06:01:24.451Z,6.38
2023-02-03T06:03:52.453Z,5.78
2023-02-03T06:06:19.890Z,5.95
2023-02-03T06:08:47.186Z,6.13
2023-02-03T06:11:14.566Z,6.10
2023-02-03T06:13:41.797Z,6.82
2023-02-03T06:16:09.529Z,6.80
2023-02-03T06:18:36.769Z,6.20
2023-02-03T06:21:04.128Z,6.43
2023-02-03T06:23:31.380Z,6.10
2023-02-03T06:26:00.344Z,10.15
2023-02-03T06:28:27.710Z,19.75
2023-02-03T06:30:54.999Z,12.93
2023-02-03T06:33:22.438Z,10.43
2023-02-03T06:35:49.775Z,21.60
2023-02-03T06:38:17.053Z,13.90
2023-02-03T06:40:48.315Z,10.48
2023-02-03T06:43:16.314Z,14.85
2023-02-03T06:45:48.050Z,16.40
2023-02-03T06:48:15.585Z,20.08
2023-02-03T06:50:43.191Z,18.15
2023-02-03T06:53:10.499Z,27.20
2023-02-03T06:55:37.894Z,22.95
2023-02-03T06:58:05.790Z,17.05
2023-02-03T07:00:33.197Z,17.13
2023-02-03T07:03:02.315Z,18.67
2023-02-03T07:05:30.416Z,19.65
2023-02-03T07:07:59.041Z,28.17
2023-02-03T07:10:27.230Z,38.78
2023-02-03T07:12:54.653Z,35.28
2023-02-03T07:15:22.189Z,43.70
2023-02-03T07:17:54.527Z,21.05
2023-02-03T07:20:23.699Z,10.15
2023-02-03T07:22:58.668Z,11.13
2023-02-03T07:25:26.589Z,8.27
2023-02-03T07:27:54.951Z,9.95
2023-02-03T07:30:22.755Z,14.98
2023-02-03T07:32:51.245Z,17.90
2023-02-03T07:35:19.297Z,14.73
2023-02-03T07:37:46.598Z,14.80
2023-02-03T07:40:14.985Z,15.00
2023-02-03T07:42:43.684Z,12.73
2023-02-03T07:45:12.472Z,13.05
2023-02-03T07:47:40.869Z,20.38
2023-02-03T07:50:09.067Z,17.95
2023-02-03T07:52:36.981Z,16.35
2023-02-03T07:55:05.371Z,15.32
2023-02-03T07:57:33.018Z,17.35
2023-02-03T08:00:00.592Z,18.70
2023-02-03T08:02:28.099Z,21.90
2023-02-03T08:04:57.960Z,40.33
2023-02-03T08:07:25.353Z,46.90
2023-02-03T08:09:53.158Z,49.03
2023-02-03T08:12:20.983Z,54.72
2023-02-03T08:14:48.656Z,57.17
2023-02-03T08:17:16.030Z,55.88
2023-02-03T08:19:43.817Z,54.85
2023-02-03T08:22:17.970Z,57.13
2023-02-03T08:24:48.704Z,55.25
2023-02-03T08:27:21.370Z,61.92
2023-02-03T08:29:49.534Z,57.42
2023-02-03T08:32:19.556Z,58.10
2023-02-03T08:34:47.794Z,64.43
2023-02-03T08:37:18.265Z,57.15
2023-02-03T08:39:45.746Z,55.95
2023-02-03T08:42:13.230Z,54.60
2023-02-03T08:44:40.670Z,55.38
2023-02-03T08:47:08.525Z,58.42
2023-02-03T08:49:39.285Z,61.33
2023-02-03T08:52:10.357Z,69.00
2023-02-03T08:54:38.221Z,72.82
2023-02-03T08:57:05.871Z,75.43
2023-02-03T08:59:36.159Z,72.20
2023-02-03T09:02:05.749Z,70.68
2023-02-03T09:04:34.197Z,75.53
2023-02-03T09:07:03.475Z,79.28
2023-02-03T09:09:32.008Z,80.25
2023-02-03T09:12:05.382Z,86.03
2023-02-03T09:14:33.739Z,84.53
2023-02-03T09:17:03.865Z,85.00
2023-02-03T09:19:32.325Z,87.53
2023-02-03T09:22:01.372Z,84.72
2023-02-03T09:24:28.897Z,87.70
2023-02-03T09:26:57.367Z,92.20
2023-02-03T09:29:25.113Z,96.65
2023-02-03T09:31:53.039Z,101.88
2023-02-03T09:34:21.769Z,97.80
2023-02-03T09:36:49.585Z,99.90
2023-02-03T09:39:17.345Z,96.50
2023-02-03T09:42:03.228Z,92.40
2023-02-03T09:44:52.565Z,89.63
2023-02-03T09:47:34.913Z,92.03
2023-02-03T09:50:06.145Z,91.53
2023-02-03T09:52:39.327Z,84.90
2023-02-03T09:55:45.387Z,79.07
2023-02-03T09:58:20.910Z,66.82
2023-02-03T10:00:57.517Z,69.53
2023-02-03T10:03:46.697Z,74.35
2023-02-03T10:06:46.099Z,77.93
2023-02-03T10:09:25.421Z,76.95
2023-02-03T10:12:04.254Z,79.45
2023-02-03T10:14:54.585Z,73.03
2023-02-03T10:17:22.322Z,64.70
2023-02-03T10:19:57.637Z,45.13
2023-02-03T10:22:28.514Z,37.22
2023-02-03T10:25:03.632Z,47.13
2023-02-03T10:27:33.413Z,42.50
2023-02-03T10:30:14.136Z,44.38
2023-02-03T10:32:41.607Z,53.15
2023-02-03T10:35:13.201Z,52.33
2023-02-03T10:37:48.846Z,47.25
2023-02-03T10:40:17.485Z,50.60
2023-02-03T10:43:06.829Z,61.72
2023-02-03T10:45:38.413Z,65.35
2023-02-03T10:48:14.295Z,65.75
2023-02-03T10:50:49.268Z,63.53
2023-02-03T10:53:34.339Z,62.83
2023-02-03T10:56:07.356Z,61.92
2023-02-03T10:58:38.790Z,61.58
2023-02-03T11:01:17.082Z,38.70
2023-02-03T11:03:57.122Z,43.67
2023-02-03T11:06:25.065Z,42.80
2023-02-03T11:08:52.718Z,50.85
2023-02-03T11:11:25.059Z,39.97
2023-02-03T11:14:10.057Z,43.63
2023-02-03T11:17:07.081Z,46.75
2023-02-03T11:19:37.792Z,46.97
2023-02-03T11:22:05.913Z,45.00
2023-02-03T11:24:39.132Z,48.72
2023-02-03T11:27:13.066Z,55.13
2023-02-03T11:29:43.770Z,50.38
2023-02-03T11:32:31.785Z,53.20
2023-02-03T11:35:03.288Z,57.40
2023-02-03T11:37:42.410Z,55.40
2023-02-03T11:40:14.812Z,51.00
2023-02-03T11:42:45.077Z,48.08
2023-02-03T11:45:14.572Z,41.80
2023-02-03T11:47:59.561Z,46.60
2023-02-03T11:50:37.725Z,49.78
2023-02-03T11:53:24.060Z,48.65
2023-02-03T11:56:22.966Z,48.40
2023-02-03T11:58:59.552Z,44.97
2023-02-03T12:01:27.044Z,47.83
2023-02-03T12:04:03.406Z,44.85
2023-02-03T12:07:03.862Z,45.42
2023-02-03T12:09:46.412Z,43.40
2023-02-03T12:12:25.989Z,37.30
2023-02-03T12:15:03.472Z,34.80
2023-02-03T12:18:00.924Z,32.00
2023-02-03T12:20:48.221Z,27.98
2023-02-03T12:23:51.979Z,25.60
2023-02-03T12:26:24.997Z,30.20
2023-02-03T12:29:08.709Z,22.92
2023-02-03T12:32:03.737Z,21.58
2023-02-03T12:34:38.498Z,26.67
2023-02-03T12:37:12.695Z,21.40
2023-02-03T12:39:45.657Z,22.55
2023-02-03T12:42:19.738Z,22.73
2023-02-03T12:45:06.154Z,17.77
2023-02-03T12:47:59.370Z,27.50
2023-02-03T12:50:32.351Z,25.02
2023-02-03T12:53:20.946Z,24.20
2023-02-03T12:56:00.928Z,22.65
2023-02-03T12:58:34.570Z,20.63
2023-02-03T13:01:35.778Z,21.92
2023-02-03T13:04:09.890Z,21.92
2023-02-03T13:06:57.513Z,26.90
2023-02-03T13:09:32.007Z,26.88
2023-02-03T13:12:11.781Z,33.05
2023-02-03T13:14:39.523Z,25.95
2023-02-03T13:17:20.668Z,27.00
2023-02-03T13:19:55.149Z,16.10
2023-02-03T13:22:23.941Z,13.45
2023-02-03T13:25:13.371Z,14.07
2023-02-03T13:27:59.244Z,17.02
2023-02-03T13:30:58.359Z,14.23
2023-02-03T13:33:39.039Z,14.45
2023-02-03T13:36:27.907Z,13.18
2023-02-03T13:39:13.233Z,12.27
2023-02-03T13:41:51.247Z,14.45
2023-02-03T13:44:22.427Z,14.43
2023-02-03T13:46:51.840Z,14.32
2023-02-03T13:49:29.945Z,13.73
2023-02-03T13:51:57.798Z,13.93
2023-02-03T13:54:42.878Z,14.43
2023-02-03T13:57:34.422Z,15.13
2023-02-03T14:00:05.107Z,15.30
2023-02-03T14:02:44.155Z,14.73
2023-02-03T14:05:39.920Z,15.07
2023-02-03T14:08:36.755Z,15.43
2023-02-03T14:11:35.216Z,14.93
2023-02-03T14:14:05.853Z,15.07
2023-02-03T14:16:40.089Z,15.00
2023-02-03T14:19:13.187Z,16.90
2023-02-03T14:21:54.186Z,15.55
2023-02-03T14:24:22.882Z,14.40
2023-02-03T14:26:53.205Z,15.48
2023-02-03T14:29:29.380Z,15.07
2023-02-03T14:32:01.548Z,15.98
2023-02-03T14:34:38.125Z,13.95
2023-02-03T14:37:30.855Z,15.52
2023-02-03T14:40:14.209Z,14.80
2023-02-03T14:42:49.459Z,14.02
2023-02-03T14:45:35.913Z,14.20
2023-02-03T14:48:30.754Z,15.32
2023-02-03T14:51:10.773Z,16.45
2023-02-03T14:53:52.715Z,14.93
2023-02-03T14:59:04.807Z,17.52
2023-02-03T15:01:35.958Z,17.98
2023-02-03T15:04:12.098Z,14.85
2023-02-03T15:06:48.244Z,14.50
2023-02-03T15:09:38.792Z,15.20
2023-02-03T15:12:27.141Z,14.90
2023-02-03T15:15:13.307Z,14.38
2023-02-03T15:17:40.718Z,14.18
2023-02-03T15:20:33.871Z,13.52
2023-02-03T15:23:03.314Z,11.98
2023-02-03T15:25:32.993Z,12.93
2023-02-03T15:28:19.363Z,13.70
2023-02-03T15:30:51.879Z,13.18
2023-02-03T15:33:21.849Z,13.55
2023-02-03T15:35:54.780Z,12.75
2023-02-03T15:38:49.217Z,12.95
2023-02-03T15:41:23.931Z,13.50
2023-02-03T15:44:01.311Z,14.80
2023-02-03T15:46:38.887Z,16.70
2023-02-03T15:49:14.826Z,18.48
2023-02-03T15:51:49.696Z,20.25
2023-02-03T15:54:24.712Z,15.88
2023-02-03T15:57:01.757Z,20.63
2023-02-03T15:59:42.554Z,21.40
2023-02-03T16:02:22.724Z,19.05
2023-02-03T16:04:50.575Z,16.77
2023-02-03T16:07:23.042Z,17.13
2023-02-03T16:09:55.971Z,18.15
2023-02-03T16:12:29.726Z,20.40
2023-02-03T16:14:59.368Z,19.70
2023-02-03T16:17:39.379Z,19.15
2023-02-03T16:20:12.635Z,19.25
2023-02-03T16:22:44.377Z,20.63
2023-02-03T16:25:19.659Z,19.92
2023-02-03T16:28:15.763Z,20.92
2023-02-03T16:31:17.463Z,25.73
2023-02-03T16:34:05.310Z,47.08
2023-02-03T16:36:52.215Z,53.67
2023-02-03T16:39:38.145Z,56.55
2023-02-03T16:42:36.162Z,57.55
2023-02-03T16:45:32.049Z,56.85
2023-02-03T16:48:18.543Z,58.08
2023-02-03T16:50:59.730Z,73.18
2023-02-03T16:53:30.675Z,61.00
2023-02-03T16:56:04.312Z,61.85
2023-02-03T16:58:32.539Z,62.97
2023-02-03T17:01:02.803Z,64.35
2023-02-03T17:03:32.686Z,63.40
2023-02-03T17:06:11.010Z,63.55
2023-02-03T17:08:40.735Z,70.82
2023-02-03T17:11:15.981Z,68.95
2023-02-03T17:13:43.772Z,72.93
2023-02-03T17:16:15.487Z,77.13
2023-02-03T17:18:43.726Z,76.15
2023-02-03T17:21:14.503Z,75.90
2023-02-03T17:23:42.534Z,96.78
2023-02-03T17:26:10.811Z,79.00
2023-02-03T17:28:40.321Z,71.63
2023-02-03T17:31:08.350Z,76.10
2023-02-03T17:33:35.716Z,72.60
2023-02-03T17:36:07.400Z,88.45
2023-02-03T17:55:14.161Z,79.72
2023-02-03T17:57:41.575Z,73.70
2023-02-03T18:00:10.608Z,83.20
2023-02-03T18:02:43.083Z,77.03
2023-02-03T18:05:11.105Z,76.82
2023-02-03T18:07:38.415Z,91.63
2023-02-03T18:10:06.359Z,86.45
2023-02-03T18:12:33.760Z,74.65
2023-02-03T18:15:01.156Z,75.00
2023-02-03T18:17:28.522Z,76.63
2023-02-03T18:19:56.579Z,71.20
2023-02-03T18:22:24.921Z,79.18
2023-02-03T18:24:52.880Z,81.65
2023-02-03T18:27:20.211Z,79.45
2023-02-03T18:29:48.705Z,68.38
2023-02-03T18:32:16.600Z,68.68
2023-02-03T18:34:44.093Z,70.40
2023-02-03T18:37:12.455Z,69.90
2023-02-03T18:39:39.864Z,73.30
2023-02-03T18:42:07.370Z,75.20
2023-02-03T18:44:34.909Z,67.40
2023-02-03T18:47:07.039Z,71.13
2023-02-03T18:49:39.235Z,74.88
2023-02-03T18:52:06.977Z,66.90
2023-02-03T18:54:34.302Z,65.30
2023-02-03T18:57:03.069Z,65.55
2023-02-03T18:59:31.055Z,79.03
2023-02-03T19:01:58.808Z,66.72
2023-02-03T19:04:26.108Z,82.45
2023-02-03T19:06:53.848Z,101.10
2023-02-03T19:09:23.619Z,103.60
2023-02-03T19:11:50.977Z,80.53
2023-02-03T19:14:19.414Z,76.07
2023-02-03T19:16:50.262Z,87.47
2023-02-03T19:19:17.740Z,88.88
2023-02-03T19:21:46.483Z,85.28
2023-02-03T19:24:15.462Z,72.32
2023-02-03T19:26:42.939Z,75.22
2023-02-03T19:29:10.359Z,70.95
2023-02-03T19:31:38.295Z,69.55
2023-02-03T19:34:05.984Z,67.95
2023-02-03T19:36:33.272Z,75.22
2023-02-03T19:39:00.667Z,79.07
2023-02-03T19:41:30.717Z,84.72
2023-02-03T19:43:58.475Z,81.57
2023-02-03T19:46:27.369Z,133.50
2023-02-03T19:48:54.669Z,91.85
2023-02-03T19:51:22.432Z,70.45
2023-02-03T19:53:51.279Z,64.90
2023-02-03T19:56:19.270Z,66.43
2023-02-03T19:58:51.942Z,65.13
2023-02-03T20:01:20.975Z,56.78
2023-02-03T20:03:48.862Z,57.72
2023-02-03T20:06:17.396Z,53.03
2023-02-03T20:08:45.115Z,49.42
2023-02-03T20:11:13.123Z,46.00
2023-02-03T20:13:43.404Z,45.70
2023-02-03T20:16:11.433Z,41.60
2023-02-03T20:18:38.718Z,38.33
2023-02-03T20:21:06.626Z,35.88
2023-02-03T20:23:34.423Z,35.22
2023-02-03T20:26:02.677Z,33.22
2023-02-03T20:28:30.588Z,31.25
2023-02-03T20:31:00.705Z,26.25
2023-02-03T20:33:30.356Z,26.88
2023-02-03T20:35:58.637Z,25.77
2023-02-03T20:38:26.447Z,24.52
2023-02-03T20:40:54.173Z,22.98
2023-02-03T20:43:24.665Z,22.55
2023-02-03T20:45:52.368Z,22.20
2023-02-03T20:48:22.540Z,21.83
2023-02-03T20:50:50.283Z,22.85
2023-02-03T20:53:23.631Z,23.48
2023-02-03T20:55:52.316Z,23.27
2023-02-03T20:58:24.315Z,24.35
2023-02-03T21:00:52.862Z,31.52
2023-02-03T21:03:39.160Z,41.70
2023-02-03T21:06:14.280Z,33.00
2023-02-03T21:08:44.977Z,31.27
2023-02-03T21:11:14.523Z,32.50
2023-02-03T21:13:43.578Z,36.22
2023-02-03T21:16:18.715Z,36.03
2023-02-03T21:18:55.122Z,35.88
2023-02-03T21:21:42.286Z,37.17
2023-02-03T21:24:29.379Z,31.20
2023-02-03T21:26:59.038Z,32.20
2023-02-03T21:29:31.417Z,33.50
2023-02-03T21:31:59.703Z,38.05
2023-02-03T21:34:31.423Z,40.42
2023-02-03T21:37:07.417Z,44.20
2023-02-03T21:39:35.180Z,45.25
2023-02-03T21:42:41.010Z,49.10
2023-02-03T21:45:14.711Z,45.45
2023-02-03T21:47:44.359Z,48.28
2023-02-03T21:50:33.513Z,46.85
2023-02-03T21:53:10.648Z,47.92
2023-02-03T21:55:40.338Z,49.40
2023-02-03T21:58:32.479Z,48.90
2023-02-03T22:07:31.198Z,46.58
2023-02-03T22:10:09.524Z,48.10
2023-02-03T22:12:36.864Z,48.05
2023-02-03T22:15:04.338Z,48.25
2023-02-03T22:17:31.812Z,49.35
2023-02-03T22:19:59.100Z,50.10
2023-02-03T22:22:26.783Z,51.15
2023-02-03T22:24:54.010Z,49.47
2023-02-03T22:27:21.677Z,53.45
2023-02-03T22:29:49.044Z,53.88
2023-02-03T22:32:16.346Z,50.88
2023-02-03T22:34:43.715Z,52.40
2023-02-03T22:37:11.491Z,50.47
2023-02-03T22:39:38.771Z,47.17
2023-02-03T22:42:06.003Z,49.40
2023-02-03T22:44:33.246Z,48.90
2023-02-03T22:47:00.614Z,49.33
2023-02-03T22:49:28.016Z,47.63
2023-02-03T22:51:55.301Z,44.97
2023-02-03T22:54:23.039Z,48.38
2023-02-03T22:56:50.337Z,47.35
2023-02-03T22:59:17.606Z,45.90
2023-02-03T23:01:45.491Z,45.85
2023-02-03T23:04:12.798Z,45.38
2023-02-03T23:06:40.136Z,41.40
2023-02-03T23:09:07.655Z,36.50
2023-02-03T23:11:35.370Z,37.97
2023-02-03T23:14:02.813Z,36.78
2023-02-03T23:16:30.811Z,38.03
2023-02-03T23:18:58.189Z,32.63
2023-02-03T23:21:25.725Z,30.83
2023-02-03T23:23:53.615Z,25.10
2023-02-03T23:26:21.843Z,20.48
2023-02-03T23:28:50.034Z,19.55
2023-02-03T23:31:18.002Z,17.50
2023-02-03T23:34:05.437Z,17.20
2023-02-03T23:36:33.658Z,23.13
2023-02-03T23:39:00.944Z,25.52
2023-02-03T23:41:28.866Z,25.77
2023-02-03T23:43:56.164Z,24.25
2023-02-03T23:46:23.925Z,19.38
2023-02-03T23:48:51.218Z,12.93
2023-02-03T23:51:18.438Z,14.50
2023-02-03T23:53:45.727Z,14.82
2023-02-03T23:56:13.890Z,14.85
2023-02-03T23:58:41.211Z,12.25
